createdAt,value
2023-04-03T00:00:42.625Z,0.0000
2023-04-03T00:01:44.862Z,0.0000
2023-04-03T00:02:47.120Z,0.0000
2023-04-03T00:03:49.415Z,0.0000
2023-04-03T00:04:51.608Z,0.0000
2023-04-03T00:05:53.824Z,0.0000
2023-04-03T00:06:56.026Z,0.0000
2023-04-03T00:07:58.250Z,0.0000
2023-04-03T00:09:00.469Z,0.0000
2023-04-03T00:10:02.677Z,0.0000
2023-04-03T00:11:04.892Z,0.0000
2023-04-03T00:12:07.061Z,0.0000
2023-04-03T00:13:09.264Z,0.0000
2023-04-03T00:14:11.482Z,0.0000
2023-04-03T00:15:13.800Z,0.0000
2023-04-03T00:16:16.031Z,0.0000
2023-04-03T00:17:18.221Z,0.0000
2023-04-03T00:18:20.414Z,0.0000
2023-04-03T00:19:22.652Z,0.0000
2023-04-03T00:20:24.943Z,0.0000
2023-04-03T00:21:27.132Z,0.0000
2023-04-03T00:22:29.335Z,0.0000
2023-04-03T00:23:31.540Z,0.0000
2023-04-03T00:24:33.761Z,0.0000
2023-04-03T00:25:35.975Z,0.0000
2023-04-03T00:26:38.165Z,0.0000
2023-04-03T00:27:40.385Z,0.0000
2023-04-03T00:28:42.602Z,0.0000
2023-04-03T00:29:44.802Z,0.0000
2023-04-03T00:30:47.024Z,0.0000
2023-04-03T00:31:49.199Z,0.0000
2023-04-03T00:32:51.445Z,0.0000
2023-04-03T00:33:53.581Z,0.0000
2023-04-03T00:34:55.791Z,0.0000
2023-04-03T00:35:58.062Z,0.0000
2023-04-03T00:37:00.382Z,0.0000
2023-04-03T00:38:02.650Z,0.0000
2023-04-03T00:39:04.838Z,0.0000
2023-04-03T00:40:07.046Z,0.0000
2023-04-03T00:41:09.272Z,0.0000
2023-04-03T00:42:11.479Z,0.0000
2023-04-03T00:43:13.714Z,0.0000
2023-04-03T00:44:15.902Z,0.0000
2023-04-03T00:45:18.161Z,0.0000
2023-04-03T00:46:20.367Z,0.0000
2023-04-03T00:47:22.649Z,0.0000
2023-04-03T00:48:24.875Z,0.0000
2023-04-03T00:49:27.109Z,0.0000
2023-04-03T00:50:29.337Z,0.0000
2023-04-03T00:51:31.553Z,0.0000
2023-04-03T00:52:32.160Z,0.0000
2023-04-03T00:53:34.378Z,0.0000
2023-04-03T00:54:36.584Z,0.0000
2023-04-03T00:55:38.964Z,0.0000
2023-04-03T00:56:41.208Z,0.0000
2023-04-03T00:57:43.397Z,0.0000
2023-04-03T00:58:45.609Z,0.0000
2023-04-03T00:59:47.846Z,0.0000
2023-04-03T01:00:50.232Z,0.0000
2023-04-03T01:01:52.487Z,0.0000
2023-04-03T01:02:54.754Z,0.0000
2023-04-03T01:03:57.012Z,0.0000
2023-04-03T01:04:59.204Z,0.0000
2023-04-03T01:06:01.471Z,0.0000
2023-04-03T01:07:03.700Z,0.0000
2023-04-03T01:08:05.971Z,0.0000
2023-04-03T01:09:08.216Z,0.0000
2023-04-03T01:10:10.431Z,0.0000
2023-04-03T01:11:12.690Z,0.0000
2023-04-03T01:12:14.905Z,0.0000
2023-04-03T01:13:17.144Z,0.0000
2023-04-03T01:14:19.390Z,0.0000
2023-04-03T01:15:21.607Z,0.0000
2023-04-03T01:16:23.880Z,0.0000
2023-04-03T01:17:26.150Z,0.0000
2023-04-03T01:18:28.362Z,0.0000
2023-04-03T01:19:30.575Z,0.0000
2023-04-03T01:20:32.814Z,0.0000
2023-04-03T01:21:35.050Z,0.0000
2023-04-03T01:22:37.270Z,0.0000
2023-04-03T01:23:39.482Z,0.0000
2023-04-03T01:24:41.640Z,0.0000
2023-04-03T01:25:43.880Z,0.0000
2023-04-03T01:26:46.143Z,0.0000
2023-04-03T01:27:48.340Z,0.0000
2023-04-03T01:28:50.546Z,0.0000
2023-04-03T01:29:52.750Z,0.0000
2023-04-03T01:30:54.940Z,0.0000
2023-04-03T01:31:57.225Z,0.0000
2023-04-03T01:32:59.462Z,0.0000
2023-04-03T01:34:01.671Z,0.0000
2023-04-03T01:35:03.863Z,0.0000
2023-04-03T01:36:06.222Z,0.0000
2023-04-03T01:37:08.454Z,0.0000
2023-04-03T01:38:10.884Z,0.0000
2023-04-03T01:39:13.086Z,0.0000
2023-04-03T01:40:15.277Z,0.0000
2023-04-03T01:41:17.483Z,0.0000
2023-04-03T01:42:19.922Z,0.0000
2023-04-03T01:43:22.099Z,0.0000
2023-04-03T01:44:24.295Z,0.0000
2023-04-03T01:45:26.523Z,0.0000
2023-04-03T01:46:28.698Z,0.0000
2023-04-03T01:47:31.258Z,0.0000
2023-04-03T01:48:33.414Z,0.0000
2023-04-03T01:49:35.616Z,0.0000
2023-04-03T01:50:38.185Z,0.0000
2023-04-03T01:51:40.627Z,0.0000
2023-04-03T01:52:42.863Z,0.0000
2023-04-03T01:53:45.078Z,0.0000
2023-04-03T01:54:47.299Z,0.0000
2023-04-03T01:55:49.551Z,0.0000
2023-04-03T01:56:51.784Z,0.0000
2023-04-03T01:57:54.011Z,0.0000
2023-04-03T01:58:56.230Z,0.0000
2023-04-03T01:59:58.486Z,0.0000
2023-04-03T02:01:00.695Z,0.0000
2023-04-03T02:02:02.892Z,0.0000
2023-04-03T02:03:05.214Z,0.0000
2023-04-03T02:04:07.452Z,0.0000
2023-04-03T02:08:06.416Z,0.0000
2023-04-03T02:08:41.370Z,0.0000
2023-04-03T02:09:43.680Z,0.0000
2023-04-03T06:22:44.362Z,0.0000
2023-04-03T06:23:46.698Z,6190.6665
2023-04-03T06:24:49.357Z,6247.7778
2023-04-03T06:25:51.779Z,6322.2222
2023-04-03T06:29:36.482Z,6416.0000
2023-04-03T06:30:57.228Z,7007.1113
2023-04-03T06:38:53.567Z,7059.0000
2023-04-03T06:39:55.940Z,8337.3330
2023-04-03T06:41:00.451Z,8282.4443
2023-04-03T06:42:00.555Z,8399.7500
2023-04-03T06:43:02.870Z,8566.8887
2023-04-03T06:44:05.157Z,8754.8887
2023-04-03T06:45:07.380Z,8957.1113
2023-04-03T06:46:08.204Z,9079.4668
2023-04-03T06:47:11.082Z,9186.6670
2023-04-03T06:48:13.386Z,9230.6670
2023-04-03T06:49:15.614Z,9247.1113
2023-04-03T06:50:20.859Z,9335.1113
2023-04-03T06:55:02.800Z,9438.8574
2023-04-03T06:55:58.536Z,9927.0000
2023-04-03T06:57:01.653Z,9711.5557
2023-04-03T06:58:03.859Z,9487.5557
2023-04-03T06:59:06.267Z,9371.5557
2023-04-03T07:00:08.925Z,9195.7773
2023-04-03T07:01:11.195Z,9034.6670
2023-04-03T07:02:13.592Z,9401.3330
2023-04-03T07:09:45.205Z,9872.0000
2023-04-03T07:10:44.624Z,11046.3525
2023-04-03T07:11:47.708Z,11313.7773
2023-04-03T07:12:50.000Z,11323.7773
2023-04-03T07:21:12.085Z,11985.4287
2023-04-03T07:22:14.386Z,12061.7773
2023-04-03T07:23:17.386Z,12242.0000
2023-04-03T07:24:19.643Z,12450.2227
2023-04-03T07:25:19.966Z,12483.7500
2023-04-03T07:26:22.255Z,12528.4443
2023-04-03T07:27:24.532Z,12733.3330
2023-04-03T07:33:46.173Z,13412.0000
2023-04-03T07:34:46.914Z,13672.2500
2023-04-03T07:44:55.626Z,13950.8574
2023-04-03T07:45:57.851Z,19356.4453
2023-04-03T07:47:00.126Z,19752.8887
2023-04-03T07:49:45.716Z,19751.1113
2023-04-03T07:50:49.420Z,19363.5547
2023-04-03T07:51:48.465Z,19774.0000
2023-04-03T07:58:59.749Z,19296.0000
2023-04-03T08:00:02.011Z,21059.5547
2023-04-03T08:01:04.632Z,21086.2227
2023-04-03T08:02:06.908Z,21121.7773
2023-04-03T08:03:18.221Z,21379.1992
2023-04-03T08:04:10.613Z,21772.8008
2023-04-03T08:05:12.936Z,22304.0000
2023-04-03T08:06:16.370Z,22714.6660
2023-04-03T08:07:16.874Z,22487.4668
2023-04-03T08:08:20.858Z,21763.5547
2023-04-03T08:09:20.306Z,20880.9414
2023-04-03T08:10:22.586Z,20067.5547
2023-04-03T08:11:29.897Z,19504.0000
2023-04-03T08:12:28.232Z,19485.0918
2023-04-03T08:13:38.858Z,20102.4004
2023-04-03T08:14:41.885Z,21651.5547
2023-04-03T08:15:44.758Z,22455.1113
2023-04-03T08:16:59.536Z,22570.6660
2023-04-03T08:26:04.735Z,22320.0000
2023-04-03T08:27:03.860Z,24626.8242
2023-04-03T08:31:08.723Z,24354.4609
2023-04-03T08:32:11.165Z,23361.7773
2023-04-03T08:33:13.488Z,23374.2227
2023-04-03T08:34:16.580Z,23671.1113
2023-04-03T08:35:17.133Z,23830.0000
2023-04-03T08:36:27.920Z,24001.8828
2023-04-03T08:37:27.956Z,23979.2949
2023-04-03T08:38:27.933Z,23798.5879
2023-04-03T08:39:30.198Z,23959.1113
2023-04-03T08:40:41.066Z,24345.5996
2023-04-03T08:45:04.520Z,24986.1816
2023-04-03T08:46:06.800Z,24117.3340
2023-04-03T08:47:09.240Z,22528.0000
2023-04-03T08:48:11.501Z,21916.4453
2023-04-03T08:49:14.061Z,22698.6660
2023-04-03T08:50:16.414Z,23809.7773
2023-04-03T08:51:18.616Z,24053.3340
2023-04-03T08:52:20.861Z,23562.6660
2023-04-03T08:53:23.162Z,22910.2227
2023-04-03T08:54:25.378Z,21975.1113
2023-04-03T08:55:27.760Z,21096.8887
2023-04-03T08:56:30.120Z,20896.0000
2023-04-03T08:57:32.605Z,21253.3340
2023-04-03T08:58:34.842Z,21338.6660
2023-04-03T09:01:03.170Z,21043.1992
2023-04-03T09:02:06.964Z,19971.5547
2023-04-03T09:03:16.818Z,20444.4453
2023-04-03T09:08:07.985Z,22512.0000
2023-04-03T09:09:19.445Z,21648.0000
2023-04-03T09:11:54.795Z,20408.0000
2023-04-03T09:15:11.845Z,18208.0000
2023-04-03T09:16:15.408Z,20401.7773
2023-04-03T09:17:16.027Z,21298.8242
2023-04-03T09:18:14.998Z,22036.7051
2023-04-03T09:19:17.545Z,21992.8887
2023-04-03T09:21:46.045Z,21924.5723
2023-04-03T09:22:52.237Z,22138.3535
2023-04-03T09:26:51.912Z,21900.8008
2023-04-03T09:27:55.065Z,21904.0000
2023-04-03T09:28:56.432Z,21602.0000
2023-04-03T09:30:00.557Z,21632.0000
2023-04-03T09:31:00.642Z,21933.1758
2023-04-03T09:32:01.097Z,22181.6465
2023-04-03T09:33:03.415Z,22371.5547
2023-04-03T09:34:05.884Z,22716.4453
2023-04-03T09:35:19.173Z,23246.2227
2023-04-03T09:44:24.375Z,23500.8008
2023-04-03T10:02:08.467Z,32176.0000
2023-04-03T10:03:11.447Z,21758.2227
2023-04-03T10:04:16.099Z,19240.8887
2023-04-03T10:07:27.290Z,17712.0000
2023-04-03T10:08:16.919Z,16720.0000
2023-04-03T10:09:19.159Z,17111.1113
2023-04-03T10:10:21.560Z,16844.4453
2023-04-03T10:11:23.790Z,16771.5547
2023-04-03T10:26:43.034Z,16768.0000
2023-04-03T10:29:51.476Z,23298.1328
2023-04-03T10:30:46.970Z,24790.0000
2023-04-03T10:31:49.443Z,26154.6660
2023-04-03T10:32:53.257Z,27116.4453
2023-04-03T10:33:52.044Z,27038.1172
2023-04-03T10:35:04.597Z,26000.9414
2023-04-03T10:39:56.468Z,26161.7773
2023-04-03T10:46:13.305Z,32960.0000
2023-04-03T10:46:51.583Z,27994.1816
2023-04-03T10:47:53.932Z,26572.4453
2023-04-03T10:48:56.836Z,25381.3340
2023-04-03T10:49:59.898Z,25377.7773
2023-04-03T10:50:59.101Z,25989.6465
2023-04-03T10:52:01.464Z,24720.0000
2023-04-03T11:02:21.464Z,15020.0000
2023-04-03T11:05:03.753Z,18320.0000
2023-04-03T11:15:21.954Z,29840.0000
2023-04-03T11:16:28.336Z,20698.6660
2023-04-03T11:17:27.361Z,18800.9414
2023-04-03T11:18:29.567Z,18028.4453
2023-04-03T11:19:31.887Z,17326.2227
2023-04-03T11:20:34.562Z,15331.3330
2023-04-03T11:21:36.876Z,13032.4443
2023-04-03T11:22:39.291Z,11828.2227
2023-04-03T11:24:53.574Z,11890.3525
2023-04-03T11:26:15.740Z,14075.2725
2023-04-03T11:27:07.797Z,14482.9336
2023-04-03T11:29:15.708Z,17456.0000
2023-04-03T11:30:13.963Z,19440.0000
2023-04-03T11:31:17.474Z,20480.0000
2023-04-03T11:32:16.512Z,20387.7656
2023-04-03T11:34:05.523Z,19216.0000
2023-04-03T11:34:47.173Z,15877.3330
2023-04-03T11:35:50.337Z,14987.7773
2023-04-03T11:36:52.693Z,13778.8887
2023-04-03T11:37:53.204Z,12440.0000
2023-04-03T11:38:55.854Z,11675.1113
2023-04-03T11:39:58.079Z,12158.4443
2023-04-03T11:41:00.413Z,12930.0000
2023-04-03T11:42:40.532Z,13096.5713
2023-04-03T11:43:34.542Z,13033.1426
2023-04-03T11:44:36.798Z,13946.2227
2023-04-03T11:45:39.202Z,15925.3330
2023-04-03T11:48:13.011Z,16576.0000
2023-04-03T11:49:06.622Z,13992.5000
2023-04-03T11:50:09.791Z,13143.7773
2023-04-03T11:51:11.960Z,13056.4443
2023-04-03T11:52:14.186Z,13138.8887
2023-04-03T11:56:31.121Z,13226.0000
2023-04-03T11:57:55.246Z,11347.7139
2023-04-03T11:58:47.659Z,11371.4668
2023-04-03T11:59:50.052Z,11596.8887
2023-04-03T12:00:52.509Z,12489.7773
2023-04-03T12:01:54.973Z,13418.8887
2023-04-03T12:02:57.328Z,13851.5557
2023-04-03T12:04:00.843Z,14387.1113
2023-04-03T12:05:03.130Z,15449.1113
2023-04-03T12:06:05.362Z,17447.1113
2023-04-03T12:07:07.591Z,19827.5547
2023-04-03T12:08:09.800Z,22272.0000
2023-04-03T12:09:12.036Z,24542.2227
2023-04-03T12:10:21.413Z,26449.7773
2023-04-03T12:11:15.543Z,26704.0000
2023-04-03T12:12:17.823Z,25495.1113
2023-04-03T12:13:22.988Z,24112.0000
2023-04-03T12:14:26.941Z,22540.0000
2023-04-03T12:15:29.716Z,19326.2227
2023-04-03T12:16:32.179Z,16791.1113
2023-04-03T12:17:34.446Z,15417.5557
2023-04-03T12:18:37.630Z,15114.4443
2023-04-03T12:19:42.494Z,14672.9414
2023-04-03T12:20:37.963Z,13373.5000
2023-04-03T12:21:40.209Z,12291.7773
2023-04-03T12:22:42.675Z,12248.2227
2023-04-03T12:23:44.894Z,12464.8887
2023-04-03T12:24:47.153Z,13074.0000
2023-04-03T12:25:49.446Z,14185.7773
2023-04-03T12:26:52.195Z,15374.0000
2023-04-03T12:27:54.488Z,16764.4453
2023-04-03T12:28:56.788Z,17655.1113
2023-04-03T12:29:59.076Z,18136.8887
2023-04-03T12:31:01.328Z,18919.1113
2023-04-03T12:32:03.571Z,20371.5547
2023-04-03T12:33:12.430Z,22392.8887
2023-04-03T12:34:07.164Z,24784.0000
2023-04-03T12:35:09.439Z,27082.6660
2023-04-03T12:36:11.693Z,29130.6660
2023-04-03T12:37:14.052Z,29731.5547
2023-04-03T12:38:16.337Z,29390.2227
2023-04-03T12:39:18.631Z,29088.0000
2023-04-03T12:40:20.920Z,28750.2227
2023-04-03T12:41:23.684Z,28698.6660
2023-04-03T12:42:25.888Z,28497.7773
2023-04-03T12:43:28.176Z,27088.0000
2023-04-03T12:44:30.514Z,24830.2227
2023-04-03T12:45:33.249Z,22572.4453
2023-04-03T12:46:35.596Z,20832.0000
2023-04-03T12:47:37.855Z,19987.5547
2023-04-03T12:48:40.116Z,20154.6660
2023-04-03T12:49:42.369Z,19584.0000
2023-04-03T12:50:45.533Z,17992.8887
2023-04-03T12:51:47.704Z,17521.7773
2023-04-03T12:52:50.012Z,17107.5547
2023-04-03T12:53:52.268Z,15526.8887
2023-04-03T12:54:54.560Z,15310.8887
2023-04-03T12:55:56.837Z,16510.2227
2023-04-03T12:56:59.434Z,17306.6660
2023-04-03T12:58:01.659Z,17788.4453
2023-04-03T12:59:04.133Z,19246.2227
2023-04-03T13:00:06.360Z,21402.6660
2023-04-03T13:01:09.369Z,23032.8887
2023-04-03T13:02:10.290Z,24886.0000
2023-04-03T13:03:12.653Z,26997.3340
2023-04-03T13:04:14.988Z,28696.8887
2023-04-03T13:05:17.311Z,30558.2227
2023-04-03T13:06:19.517Z,32167.1113
2023-04-03T13:07:22.578Z,33927.1094
2023-04-03T13:08:24.908Z,33109.3320
2023-04-03T13:09:28.107Z,31752.8887
2023-04-03T13:10:30.392Z,30778.6660
2023-04-03T13:11:32.643Z,31091.5547
2023-04-03T13:12:39.222Z,30883.5547
2023-04-03T13:13:35.381Z,29250.0000
2023-04-03T13:14:37.765Z,28421.3340
2023-04-03T13:15:40.422Z,28981.3340
2023-04-03T13:16:42.637Z,29527.1113
2023-04-03T13:17:45.169Z,28256.0000
2023-04-03T13:18:47.682Z,25792.0000
2023-04-03T13:19:49.997Z,22983.1113
2023-04-03T13:20:52.323Z,21424.0000
2023-04-03T13:21:54.699Z,20074.6660
2023-04-03T13:22:56.979Z,17712.0000
2023-04-03T13:24:13.894Z,15009.3330
2023-04-03T13:25:02.757Z,12808.7500
2023-04-03T13:26:02.731Z,11569.1768
2023-04-03T13:27:05.019Z,10988.8887
2023-04-03T13:28:13.927Z,10762.2227
2023-04-03T13:29:14.895Z,10016.5000
2023-04-03T13:30:11.181Z,8866.0000
2023-04-03T13:31:14.235Z,7801.7778
2023-04-03T13:32:16.505Z,7038.4443
2023-04-03T13:33:18.822Z,6571.1113
2023-04-03T13:34:21.108Z,6324.2222
2023-04-03T13:35:23.657Z,6287.3335
2023-04-03T13:36:25.866Z,6350.4443
2023-04-03T13:37:28.217Z,6421.1113
2023-04-03T13:38:30.473Z,6500.6665
2023-04-03T13:39:32.823Z,6725.3335
2023-04-03T13:40:46.921Z,7126.0000
2023-04-03T13:41:36.857Z,7572.7500
2023-04-03T13:42:39.158Z,7807.1113
2023-04-03T13:43:42.055Z,8145.7778
2023-04-03T13:44:42.020Z,8520.0000
2023-04-03T13:45:44.307Z,8688.6670
2023-04-03T13:46:46.641Z,8607.5557
2023-04-03T13:47:49.230Z,9092.8887
2023-04-03T13:48:51.619Z,10231.1113
2023-04-03T13:49:51.692Z,11472.6670
2023-04-03T13:50:54.020Z,12960.8887
2023-04-03T13:52:06.496Z,15347.7773
2023-04-03T13:52:58.644Z,18000.0000
2023-04-03T13:54:00.901Z,19706.6660
2023-04-03T13:55:07.730Z,20627.5547
2023-04-03T13:56:05.021Z,20820.0000
2023-04-03T13:57:07.322Z,20678.4004
2023-04-03T13:58:10.015Z,19216.0000
2023-04-03T13:59:12.634Z,16968.8887
2023-04-03T14:00:15.002Z,13864.8887
2023-04-03T14:01:17.345Z,11741.7773
2023-04-03T14:02:19.702Z,11359.1113
2023-04-03T14:03:22.077Z,11621.7773
2023-04-03T14:04:24.476Z,10524.4443
2023-04-03T14:05:26.752Z,9429.5557
2023-04-03T14:06:29.880Z,8870.6670
2023-04-03T14:07:32.293Z,8052.0000
2023-04-03T14:08:42.430Z,7265.7778
2023-04-03T14:09:36.059Z,7052.5000
2023-04-03T14:10:38.365Z,7465.3335
2023-04-03T14:11:40.674Z,8296.2227
2023-04-03T14:12:42.990Z,9084.0000
2023-04-03T14:13:45.302Z,9877.5557
2023-04-03T14:14:47.554Z,10906.0000
2023-04-03T14:15:49.902Z,11511.5557
2023-04-03T14:16:52.302Z,11560.2227
2023-04-03T14:17:54.716Z,11174.2227
2023-04-03T14:18:57.124Z,10771.5557
2023-04-03T14:19:59.414Z,10397.1113
2023-04-03T14:21:02.144Z,9831.7773
2023-04-03T14:22:04.425Z,9276.8887
2023-04-03T14:23:06.701Z,8849.1113
2023-04-03T14:24:09.614Z,8435.3330
2023-04-03T14:25:12.206Z,7985.3335
2023-04-03T14:26:12.088Z,7478.5884
2023-04-03T14:27:14.982Z,7144.8887
2023-04-03T14:28:20.111Z,6970.6665
2023-04-03T14:29:19.016Z,6903.2939
2023-04-03T14:30:21.284Z,6886.0000
2023-04-03T14:31:23.615Z,6857.7778
2023-04-03T14:32:26.053Z,6933.7778
2023-04-03T14:33:29.642Z,7168.0000
2023-04-03T14:34:30.835Z,7566.5713
2023-04-03T14:35:33.485Z,7951.5557
2023-04-03T14:36:35.871Z,8504.0000
2023-04-03T14:37:38.193Z,9205.7773
2023-04-03T14:38:40.480Z,9801.7773
2023-04-03T14:39:44.123Z,10125.1113
2023-04-03T14:40:46.609Z,10300.4707
2023-04-03T14:41:44.446Z,10329.0664
2023-04-03T14:42:48.005Z,10307.5557
2023-04-03T14:43:49.274Z,10273.5000
2023-04-03T14:44:51.640Z,10090.2227
2023-04-03T14:45:55.654Z,9836.4443
2023-04-03T14:46:57.804Z,9497.3330
2023-04-03T14:48:59.147Z,8577.8457
2023-04-03T14:50:00.223Z,8210.0000
2023-04-03T14:51:05.953Z,7989.3335
2023-04-03T14:52:05.476Z,7958.1177
2023-04-03T14:53:16.996Z,8112.4443
2023-04-03T14:55:22.116Z,8220.0000
2023-04-03T14:56:10.897Z,8216.0000
2023-04-03T14:57:13.182Z,8155.5557
2023-04-03T14:58:15.965Z,8140.4443
2023-04-03T14:59:18.235Z,8217.3330
2023-04-03T15:00:19.564Z,8366.0000
2023-04-03T15:01:22.059Z,8656.4443
2023-04-03T15:02:26.008Z,8947.7773
2023-04-03T15:03:41.374Z,9128.0000
2023-04-03T15:13:16.017Z,6803.0000
2023-04-03T15:14:29.662Z,6610.0000
2023-04-03T15:15:19.688Z,6762.2500
2023-04-03T15:16:22.060Z,6962.2222
2023-04-03T15:17:25.053Z,7025.3335
2023-04-03T15:18:30.352Z,6718.6665
2023-04-03T15:19:29.848Z,6290.8237
2023-04-03T15:20:32.093Z,5779.5557
2023-04-03T15:21:35.064Z,5484.0000
2023-04-03T15:22:37.325Z,5415.1113
2023-04-03T15:23:39.568Z,5498.2222
2023-04-03T15:24:41.926Z,5817.5557
2023-04-03T15:25:44.225Z,6131.5557
2023-04-03T15:26:47.133Z,6394.8887
2023-04-03T15:27:49.396Z,6546.2222
2023-04-03T15:28:51.764Z,6690.4443
2023-04-03T15:29:54.156Z,6855.7778
2023-04-03T15:30:56.618Z,6808.2222
2023-04-03T15:31:58.992Z,6714.4443
2023-04-03T15:33:01.339Z,6598.6665
2023-04-03T15:34:03.613Z,6532.0000
2023-04-03T15:35:05.970Z,6351.7778
2023-04-03T15:36:17.611Z,6260.6665
2023-04-03T15:37:09.666Z,6400.0000
2023-04-03T15:38:12.116Z,6440.4443
2023-04-03T15:39:14.392Z,6052.4443
2023-04-03T15:40:16.703Z,5516.2222
2023-04-03T15:41:19.009Z,5271.7778
2023-04-03T15:42:21.329Z,5348.2222
2023-04-03T15:43:23.649Z,5623.7778
2023-04-03T15:44:25.922Z,5796.8887
2023-04-03T15:45:28.291Z,5621.5557
2023-04-03T15:46:30.649Z,5457.7778
2023-04-03T15:47:33.325Z,5464.0000
2023-04-03T15:48:35.853Z,5516.8887
2023-04-03T15:49:38.177Z,5580.4443
2023-04-03T15:50:40.748Z,5636.8887
2023-04-03T15:51:43.108Z,5523.5557
2023-04-03T15:52:45.473Z,5149.3335
2023-04-03T15:53:47.833Z,4813.5557
2023-04-03T15:54:50.149Z,4683.1113
2023-04-03T15:55:52.406Z,4689.1113
2023-04-03T15:56:54.753Z,4637.5557
2023-04-03T15:57:57.046Z,4542.2222
2023-04-03T15:58:59.366Z,4519.5557
2023-04-03T16:00:01.830Z,4587.5557
2023-04-03T16:01:05.433Z,4667.1113
2023-04-03T16:02:04.306Z,4731.0586
2023-04-03T16:03:06.724Z,4706.0000
2023-04-03T16:04:09.082Z,4564.4443
2023-04-03T16:05:11.385Z,4415.7778
2023-04-03T16:06:13.708Z,4250.4443
2023-04-03T16:07:16.025Z,4046.4443
2023-04-03T16:08:22.026Z,3837.5557
2023-04-03T16:09:20.943Z,3670.5881
2023-04-03T16:10:23.249Z,3628.2222
2023-04-03T16:11:25.585Z,3593.7778
2023-04-03T16:12:29.040Z,3533.7778
2023-04-03T16:13:27.904Z,3447.2942
2023-04-03T16:14:30.519Z,3480.8889
2023-04-03T16:15:39.347Z,3533.8823
2023-04-03T16:16:41.559Z,3441.3333
2023-04-03T16:17:43.885Z,3229.1111
2023-04-03T16:18:46.165Z,2998.0000
2023-04-03T16:19:48.441Z,2901.7778
2023-04-03T16:20:50.755Z,2944.2222
2023-04-03T16:21:52.998Z,3114.2222
2023-04-03T16:22:55.345Z,3359.3333
2023-04-03T16:23:57.566Z,3600.2222
2023-04-03T16:24:59.930Z,3756.0000
2023-04-03T16:26:02.600Z,3789.7778
2023-04-03T16:27:04.856Z,3734.4443
2023-04-03T16:28:07.103Z,3708.4443
2023-04-03T16:29:09.821Z,3751.7778
2023-04-03T16:30:12.358Z,3754.4443
2023-04-03T16:31:14.659Z,3673.1111
2023-04-03T16:32:17.112Z,3551.3333
2023-04-03T16:33:19.430Z,3454.2222
2023-04-03T16:34:21.731Z,3399.1111
2023-04-03T16:35:24.244Z,3414.6667
2023-04-03T16:36:26.532Z,3424.4443
2023-04-03T16:37:29.208Z,3421.3333
2023-04-03T16:38:29.311Z,3394.5881
2023-04-03T16:39:31.677Z,3369.3333
2023-04-03T16:40:34.419Z,3356.6667
2023-04-03T16:41:36.715Z,3296.2222
2023-04-03T16:42:38.968Z,3174.0000
2023-04-03T16:44:43.365Z,2961.3333
2023-04-03T16:45:45.708Z,2945.7778
2023-04-03T16:46:48.541Z,2937.7778
2023-04-03T16:47:51.172Z,2896.0000
2023-04-03T16:48:53.488Z,2860.4443
2023-04-03T16:49:55.833Z,2882.8889
2023-04-03T16:50:58.132Z,2927.3333
2023-04-03T16:52:00.520Z,2912.8889
2023-04-03T16:53:04.378Z,2838.0000
2023-04-03T16:54:04.535Z,2747.0000
2023-04-03T16:55:05.206Z,2666.3530
2023-04-03T16:56:07.617Z,2580.0000
2023-04-03T16:57:10.081Z,2456.2222
2023-04-03T16:58:10.871Z,2334.5000
2023-04-03T16:59:13.182Z,2191.3333
2023-04-03T17:00:15.769Z,2042.4445
2023-04-03T17:01:18.033Z,1932.6666
2023-04-03T17:02:19.986Z,1911.0769
2023-04-03T17:03:23.583Z,1949.1111
2023-04-03T17:04:25.003Z,1974.7500
2023-04-03T17:05:27.451Z,1929.5555
2023-04-03T17:06:29.756Z,1817.3334
2023-04-03T17:07:31.993Z,1688.8889
2023-04-03T17:08:34.706Z,1514.4445
2023-04-03T17:09:37.154Z,1354.2222
2023-04-03T17:10:39.420Z,1233.7778
2023-04-03T17:11:42.326Z,1152.4445
2023-04-03T17:12:41.893Z,1088.9412
2023-04-03T17:13:44.160Z,1050.0000
2023-04-03T17:14:46.436Z,1017.7778
2023-04-03T17:15:48.937Z,975.3333
2023-04-03T17:16:51.242Z,918.2222
2023-04-03T17:17:53.555Z,907.5555
2023-04-03T17:18:55.868Z,928.0000
2023-04-03T17:19:58.242Z,959.7778
2023-04-03T17:21:00.563Z,972.4445
2023-04-03T17:22:02.990Z,975.3333
2023-04-03T17:23:05.309Z,954.2222
2023-04-03T17:24:07.575Z,958.2222
2023-04-03T17:25:10.004Z,982.4445
2023-04-03T17:26:12.280Z,975.7778
2023-04-03T17:27:14.570Z,955.5555
2023-04-03T17:28:16.933Z,912.6667
2023-04-03T17:29:19.218Z,866.8889
2023-04-03T17:30:21.653Z,844.2222
2023-04-03T17:31:24.134Z,828.6667
2023-04-03T17:32:24.541Z,796.7500
2023-04-03T17:33:26.938Z,743.1111
2023-04-03T17:34:29.227Z,689.1111
2023-04-03T17:35:32.095Z,664.2222
2023-04-03T17:36:34.850Z,662.1334
2023-04-03T17:37:37.500Z,665.5555
2023-04-03T17:38:39.756Z,666.4445
2023-04-03T17:39:42.046Z,666.0000
2023-04-03T17:40:45.210Z,641.3333
2023-04-03T17:41:47.500Z,616.2222
2023-04-03T17:42:49.916Z,584.2222
2023-04-03T17:43:52.183Z,547.7778
2023-04-03T17:44:55.614Z,513.5555
2023-04-03T17:45:57.860Z,480.0000
2023-04-03T17:47:00.136Z,448.8889
2023-04-03T17:48:02.806Z,419.5555
2023-04-03T17:49:05.058Z,394.2222
2023-04-03T17:50:07.388Z,369.3333
2023-04-03T17:51:10.005Z,345.7778
2023-04-03T17:52:12.319Z,322.0000
2023-04-03T17:53:14.587Z,294.0000
2023-04-03T17:54:16.899Z,266.0000
2023-04-03T17:55:19.235Z,238.4444
2023-04-03T17:56:22.196Z,216.0000
2023-04-03T17:57:24.476Z,194.4444
2023-04-03T17:58:26.778Z,173.5556
2023-04-03T17:59:29.101Z,152.6667
2023-04-03T18:00:31.691Z,130.8889
2023-04-03T18:01:34.006Z,109.7778
2023-04-03T18:02:36.358Z,90.0000
2023-04-03T18:03:38.728Z,73.1111
2023-04-03T18:04:41.021Z,58.6667
2023-04-03T18:05:43.761Z,48.0000
2023-04-03T18:06:46.140Z,39.5556
2023-04-03T18:07:48.500Z,32.8889
2023-04-03T18:08:50.770Z,28.0000
2023-04-03T18:09:53.536Z,23.1111
2023-04-03T18:10:55.946Z,18.8889
2023-04-03T18:11:58.221Z,16.2222
2023-04-03T18:13:00.520Z,14.4444
2023-04-03T18:14:02.787Z,12.2222
2023-04-03T18:15:03.414Z,11.0588
2023-04-03T18:16:05.716Z,9.5556
2023-04-03T18:17:07.976Z,8.4444
2023-04-03T18:18:10.287Z,6.8889
2023-04-03T18:19:22.832Z,6.6667
2023-04-03T18:20:13.900Z,4.7500
2023-04-03T18:21:16.352Z,4.2222
2023-04-03T18:22:18.689Z,3.5556
2023-04-03T18:23:21.022Z,2.6667
2023-04-03T18:24:23.273Z,1.3333
2023-04-03T18:25:25.898Z,3.5556
2023-04-03T18:26:28.234Z,0.6667
2023-04-03T18:27:30.494Z,0.0000
2023-04-03T18:28:32.740Z,3.7778
2023-04-03T18:29:35.103Z,2.2222
2023-04-03T18:30:37.611Z,0.0000
2023-04-03T18:31:40.241Z,0.0000
2023-04-03T18:32:42.563Z,0.0000
2023-04-03T18:33:44.924Z,0.0000
2023-04-03T18:34:47.221Z,0.0000
2023-04-03T18:35:49.510Z,0.0000
2023-04-03T18:36:53.034Z,0.0000
2023-04-03T18:37:53.539Z,0.0000
2023-04-03T18:38:55.844Z,0.0000
2023-04-03T18:39:58.161Z,0.0000
2023-04-03T18:41:01.135Z,0.0000
2023-04-03T18:42:03.391Z,0.0000
2023-04-03T18:43:05.671Z,0.0000
2023-04-03T18:44:08.005Z,0.0000
2023-04-03T18:45:10.559Z,0.0000
2023-04-03T18:46:12.847Z,0.0000
2023-04-03T18:47:15.146Z,0.0000
2023-04-03T18:48:17.431Z,0.0000
2023-04-03T18:49:19.755Z,0.0000
2023-04-03T18:50:22.735Z,0.0000
2023-04-03T18:51:25.023Z,0.0000
2023-04-03T18:52:27.312Z,0.0000
2023-04-03T18:53:29.913Z,0.0000
2023-04-03T18:54:32.190Z,0.0000
2023-04-03T18:55:34.476Z,0.0000
2023-04-03T18:56:36.756Z,0.0000
2023-04-03T18:57:39.093Z,0.0000
2023-04-03T18:58:41.361Z,0.0000
2023-04-03T18:59:44.344Z,0.0000
2023-04-03T19:00:46.676Z,0.0000
2023-04-03T19:01:48.913Z,0.0000
2023-04-03T19:02:51.442Z,0.0000
2023-04-03T19:03:53.723Z,0.0000
2023-04-03T19:04:57.246Z,0.0000